Sunday, February 01, 2015
04:09 UTC
  |  Log In   |  Register Free
Airport Search:

Tyler Pounds Regional Airport
(KTYR)

FAA data valid effective January 08, 2015 - March 05, 2015 (unless otherwise noted).

 
 
 
 
 
 
 
 
 
 
 
 
 
 

Current Aviation Weather for Tyler Pounds Regional Airport (KTYR)

The most recent METAR observation for KTYR was updated at: 0315
METAR Summary (Translated METAR)
KTYR
010253Z 15012KT 10SM OVC019 14/08 A2998 RMK AO2 SLP151 T01390078 58013
KJDD
010255Z AUTO 14007KT 10SM OVC020 13/04 A2999 RMK AO2
(23.8 nm NW from KTYR)
KF44
010255Z AUTO 14011G15KT 10SM -RA OVC018 12/08 A2996 RMK AO2
(24.5 nm SW from KTYR)
TAF Summary (Translated TAF)
KTYR
312044Z 3121/0118 13010KT P6SM BKN100 TEMPO 3121/3124 BKN025 FM010000 15012G18KT P6SM OVC025 TEMPO 0102/0106 5SM -RA BR OVC015 FM010600 17014G22KT 3SM RA BR OVC008 FM011400 24015G25KT P6SM VCTS OVC020CB
  Airport Weather Conditions for KTYR

 Current Weather at TYR
57° F
Overcast
Southeast winds at 13.8 mph
TYR NOAA Radar

Pressure: 29.98 in
Humidity: 67%
Wind: Southeast at 13.8 MPH (12 KT)
Dew Point: 46.0°F
Visibility: 10.00 mi


Airport Weather Forecast for KTYR

Translated METAR and TAF for KTYR
Translated METAR for KTYR (0409 UTC 01 February 2015)
found at http://aviationweather.gov/adds/metars/
 
METAR text: KTYR 010353Z 15015G24KT 9SM -RA BKN020 OVC070 13/09 A2996 RMK AO2 RAB32 SLP144 P0000 T01280089
Conditions at: KTYR (TYLER , TX, US) observed 0353 UTC 01 February 2015
Temperature: 12.8°C (55°F)
Dewpoint: 8.9°C (48°F) [RH = 77%]
Pressure (altimeter): 29.96 inches Hg (1014.6 mb)
[Sea-level pressure: 1014.4 mb]
Winds: from the SSE (150 degrees) at 17 MPH (15 knots; 7.8 m/s)
gusting to 28 MPH (24 knots; 12.5 m/s)
Visibility: 9 miles (14 km)
Ceiling: 2000 feet AGL
Clouds: broken clouds at 2000 feet AGL
overcast cloud deck at 7000 feet AGL
Weather: -RA  (light rain)
Translated TAF for KTYR
Forecast for: KTYR (TYLER , TX, US)
TAF Text: KTYR 312348Z 0100/0124 15010KT P6SM BKN025 OVC030
Forecast period: 0000 to 0400 UTC 01 February 2015
Forecast type: FROM: standard forecast or significant change
Winds: from the SSE (150 degrees) at 12 MPH (10 knots; 5.2 m/s)
Visibility: 6 or more miles (10+ km)
Ceiling: 2500 feet AGL
Clouds: broken clouds at 2500 feet AGL
overcast cloud deck at 3000 feet AGL
Weather: no significant weather forecast for this period
TAF Text: FM010400 17013G22KT 3SM RA BR OVC010
Forecast period: 0400 to 1400 UTC 01 February 2015
Forecast type: FROM: standard forecast or significant change
Winds: from the S (170 degrees) at 15 MPH (13 knots; 6.8 m/s)
gusting to 25 MPH (22 knots; 11.4 m/s)
Visibility: 3 miles (5 km)
Ceiling: 1000 feet AGL
Clouds: overcast cloud deck at 1000 feet AGL
Weather: RA BR  (rain, mist)
TAF Text: FM011400 21013G22KT 5SM -TSRA BR OVC020CB
Forecast period: 1400 to 1800 UTC 01 February 2015
Forecast type: FROM: standard forecast or significant change
Winds: from the SSW (210 degrees) at 15 MPH (13 knots; 6.8 m/s)
gusting to 25 MPH (22 knots; 11.4 m/s)
Visibility: 5 miles (8 km)
Ceiling: 2000 feet AGL
Clouds: overcast cloud deck at 2000 feet AGL
Weather: -TSRA BR  (light rain associated with thunderstorm(s), mist)
TAF Text: FM011800 25013G22KT 5SM BR VCTS OVC020CB
Forecast period: 1800 to 2000 UTC 01 February 2015
Forecast type: FROM: standard forecast or significant change
Winds: from the WSW (250 degrees) at 15 MPH (13 knots; 6.8 m/s)
gusting to 25 MPH (22 knots; 11.4 m/s)
Visibility: 5 miles (8 km)
Ceiling: 2000 feet AGL
Clouds: overcast cloud deck at 2000 feet AGL
Weather: BR VCTS  (mist, thunderstorm in vicinity)
TAF Text: FM012000 32015G25KT 5SM -RA BR OVC020
Forecast period: 2000 UTC 01 February 2015 to 0000 UTC 02 February 2015
Forecast type: FROM: standard forecast or significant change
Winds: from the NW (320 degrees) at 17 MPH (15 knots; 7.8 m/s)
gusting to 29 MPH (25 knots; 13.0 m/s)
Visibility: 5 miles (8 km)
Ceiling: 2000 feet AGL
Clouds: overcast cloud deck at 2000 feet AGL
Weather: -RA BR  (light rain, mist)

Find All Airport Services Find A Hotel Find A Rental Car Find A Golf Course Find A Restaurant $100 Hamburger



FBO's on the Field
FBO Company Facility Photos Services Transportation Aviation Fuel Prices: Prices include tax
Catering Weather Repair Courtesy Rental Type 100LL JetA JetA+ MOGAS 8087
 
Jet Center of Tyler

Currently rated 5 by 1 person
FS:Phillips 66
Last Updated: Jan-27
Login to update fuel prices
SS:
Contact Jet Center of TylerMore FBO Information
 
Johnson Aviation, Inc

Currently rated 4.1 by 2 people
FS:Avfuel
Last Updated: Jan-27
Login to update fuel prices
SS:
Contact Johnson Aviation, IncMore FBO Information
 
Add another FBO Facility Photos Catering Weather Repair Courtesy Rental Type 100LL JetA JetA+ MOGAS 8087
Services Transportation Aviation Fuel Prices: Prices include tax


model-print
model-print
model-print
model-print